createdAt,value
2019-03-26T00:00:53.623Z,22.53
2019-03-26T00:03:26.496Z,31.00
2019-03-26T00:05:58.978Z,27.87
2019-03-26T00:08:31.236Z,28.23
2019-03-26T00:11:03.475Z,23.33
2019-03-26T00:13:35.599Z,26.37
2019-03-26T00:16:08.010Z,27.53
2019-03-26T00:18:40.510Z,29.07
2019-03-26T00:21:13.266Z,26.77
2019-03-26T00:23:45.562Z,23.47
2019-03-26T00:26:17.934Z,28.33
2019-03-26T00:28:49.920Z,27.33
2019-03-26T00:31:22.161Z,23.40
2019-03-26T00:33:54.632Z,23.20
2019-03-26T00:36:26.688Z,26.80
2019-03-26T00:38:59.199Z,25.70
2019-03-26T00:41:31.311Z,26.90
2019-03-26T00:44:03.352Z,29.00
2019-03-26T00:46:35.464Z,29.80
2019-03-26T00:49:07.570Z,23.00
2019-03-26T00:51:39.798Z,26.50
2019-03-26T00:54:11.921Z,28.83
2019-03-26T00:56:43.954Z,23.80
2019-03-26T00:59:16.046Z,26.13
2019-03-26T01:01:48.009Z,24.37
2019-03-26T01:04:32.144Z,32.90
2019-03-26T01:06:54.292Z,25.43
2019-03-26T01:09:26.330Z,27.17
2019-03-26T01:12:03.077Z,31.37
2019-03-26T01:14:35.255Z,27.63
2019-03-26T01:17:07.686Z,31.20
2019-03-26T01:19:39.977Z,38.63
2019-03-26T01:22:12.392Z,31.00
2019-03-26T01:24:44.365Z,30.43
2019-03-26T01:27:16.429Z,28.13
2019-03-26T01:29:48.495Z,23.67
2019-03-26T01:32:20.705Z,32.10
2019-03-26T01:34:58.132Z,24.13
2019-03-26T01:37:30.208Z,23.10
2019-03-26T01:40:02.360Z,21.90
2019-03-26T01:42:34.294Z,27.90
2019-03-26T01:45:07.358Z,19.67
2019-03-26T01:47:39.404Z,25.33
2019-03-26T01:50:11.522Z,26.13
2019-03-26T01:52:43.777Z,18.70
2019-03-26T01:55:15.896Z,30.23
2019-03-26T01:57:47.957Z,28.20
2019-03-26T02:00:20.024Z,25.50
2019-03-26T02:02:52.113Z,24.33
2019-03-26T02:05:25.895Z,19.87
2019-03-26T02:07:58.381Z,23.87
2019-03-26T02:10:30.493Z,22.17
2019-03-26T02:13:02.610Z,19.70
2019-03-26T02:15:35.574Z,20.80
2019-03-26T02:18:08.012Z,22.00
2019-03-26T02:20:40.022Z,21.03
2019-03-26T02:23:12.382Z,31.17
2019-03-26T02:25:44.522Z,26.37
2019-03-26T02:28:16.781Z,22.13
2019-03-26T02:30:49.149Z,15.77
2019-03-26T02:33:21.415Z,24.87
2019-03-26T02:35:53.605Z,26.30
2019-03-26T02:38:25.769Z,24.23
2019-03-26T02:40:57.809Z,19.57
2019-03-26T02:43:29.925Z,19.50
2019-03-26T02:46:01.999Z,18.23
2019-03-26T02:48:34.229Z,26.27
2019-03-26T02:51:06.286Z,20.10
2019-03-26T02:53:38.224Z,27.80
2019-03-26T02:56:10.350Z,26.80
2019-03-26T02:58:42.429Z,25.27
2019-03-26T03:01:14.605Z,23.77
2019-03-26T03:03:46.736Z,23.20
2019-03-26T03:06:18.987Z,18.23
2019-03-26T03:08:51.133Z,22.77
2019-03-26T03:11:23.596Z,18.00
2019-03-26T03:13:56.062Z,28.23
2019-03-26T03:16:28.310Z,20.53
2019-03-26T03:19:00.542Z,23.50
2019-03-26T03:21:32.553Z,23.10
2019-03-26T03:24:05.962Z,22.83
2019-03-26T03:26:37.981Z,23.83
2019-03-26T03:29:10.137Z,18.73
2019-03-26T03:31:42.573Z,28.73
2019-03-26T03:34:14.601Z,22.63
2019-03-26T03:36:47.038Z,29.80
2019-03-26T03:39:19.875Z,24.37
2019-03-26T03:41:51.978Z,28.83
2019-03-26T03:44:24.590Z,39.53
2019-03-26T03:46:56.445Z,31.13
2019-03-26T03:49:29.170Z,27.90
2019-03-26T03:52:01.505Z,27.20
2019-03-26T03:54:33.616Z,32.57
2019-03-26T03:57:05.979Z,33.80
2019-03-26T03:59:37.937Z,32.80
2019-03-26T04:02:10.037Z,28.67
2019-03-26T04:04:41.938Z,27.10
2019-03-26T04:07:14.778Z,32.17
2019-03-26T04:09:46.970Z,28.80
2019-03-26T04:12:19.888Z,27.83
2019-03-26T04:14:52.120Z,31.37
2019-03-26T04:17:26.027Z,33.03
2019-03-26T04:19:58.042Z,26.23
2019-03-26T04:22:30.678Z,35.17
2019-03-26T04:25:03.159Z,32.03
2019-03-26T04:27:39.111Z,32.30
2019-03-26T04:30:13.897Z,22.10
2019-03-26T04:32:45.910Z,26.93
2019-03-26T04:35:19.946Z,30.03
2019-03-26T04:37:52.701Z,39.80
2019-03-26T04:40:30.415Z,32.67
2019-03-26T04:43:02.648Z,39.63
2019-03-26T04:45:35.271Z,34.20
2019-03-26T04:48:07.488Z,33.10
2019-03-26T04:50:39.571Z,47.47
2019-03-26T04:53:11.886Z,32.60
2019-03-26T04:55:44.036Z,37.27
2019-03-26T04:58:16.247Z,34.97
2019-03-26T05:00:48.243Z,33.60
2019-03-26T05:03:20.930Z,34.60
2019-03-26T05:05:53.105Z,34.47
2019-03-26T05:08:25.625Z,32.17
2019-03-26T05:10:59.365Z,31.93
2019-03-26T05:13:33.841Z,34.57
2019-03-26T05:16:07.534Z,33.63
2019-03-26T05:18:39.767Z,34.00
2019-03-26T05:21:12.307Z,39.13
2019-03-26T05:23:44.470Z,33.23
2019-03-26T05:26:17.122Z,38.00
2019-03-26T05:28:50.951Z,31.70
2019-03-26T05:31:23.130Z,36.50
2019-03-26T05:33:55.264Z,35.07
2019-03-26T05:36:27.202Z,31.00
2019-03-26T05:39:02.213Z,34.70
2019-03-26T05:41:34.436Z,38.03
2019-03-26T05:44:06.618Z,35.63
2019-03-26T05:46:49.380Z,40.10
2019-03-26T05:49:21.639Z,42.73
2019-03-26T05:51:54.720Z,31.67
2019-03-26T05:54:26.708Z,34.37
2019-03-26T05:56:58.724Z,41.37
2019-03-26T05:59:30.862Z,19.73
2019-03-26T06:02:13.411Z,45.13
2019-03-26T06:04:36.533Z,31.80
2019-03-26T06:07:10.979Z,45.77
2019-03-26T06:09:43.104Z,50.00
2019-03-26T06:12:15.295Z,39.23
2019-03-26T06:14:47.642Z,41.47
2019-03-26T06:17:20.807Z,34.80
2019-03-26T06:19:55.608Z,28.63
2019-03-26T06:22:28.544Z,40.23
2019-03-26T06:25:01.912Z,39.17
2019-03-26T06:27:36.405Z,35.87
2019-03-26T06:30:09.551Z,41.93
2019-03-26T06:32:43.131Z,33.60
2019-03-26T06:35:15.405Z,25.03
2019-03-26T06:37:49.749Z,31.77
2019-03-26T06:40:21.843Z,41.83
2019-03-26T06:42:54.465Z,39.83
2019-03-26T06:45:29.405Z,38.60
2019-03-26T06:48:08.911Z,39.97
2019-03-26T06:50:41.342Z,43.23
2019-03-26T06:53:13.410Z,41.00
2019-03-26T06:55:49.197Z,39.63
2019-03-26T06:58:21.498Z,34.00
2019-03-26T07:00:54.766Z,43.27
2019-03-26T07:03:26.916Z,41.53
2019-03-26T07:06:14.507Z,34.47
2019-03-26T07:08:47.147Z,36.23
2019-03-26T07:11:21.897Z,36.63
2019-03-26T07:13:53.973Z,38.27
2019-03-26T07:16:28.178Z,41.30
2019-03-26T07:19:00.842Z,41.07
2019-03-26T07:21:34.354Z,44.17
2019-03-26T07:24:07.785Z,40.63
2019-03-26T07:26:59.323Z,38.63
2019-03-26T07:29:32.938Z,33.40
2019-03-26T07:32:05.125Z,31.80
2019-03-26T07:34:38.324Z,38.50
2019-03-26T07:37:10.522Z,36.90
2019-03-26T07:39:44.425Z,37.80
2019-03-26T07:42:28.834Z,29.73
2019-03-26T07:44:58.105Z,20.60
2019-03-26T07:47:41.198Z,21.70
2019-03-26T07:50:09.031Z,19.27
2019-03-26T07:52:44.342Z,24.60
2019-03-26T07:55:16.795Z,23.87
2019-03-26T07:57:50.727Z,35.40
2019-03-26T08:00:33.198Z,27.10
2019-03-26T08:03:07.180Z,30.67
2019-03-26T08:05:40.488Z,42.63
2019-03-26T08:08:13.198Z,38.97
2019-03-26T08:10:46.150Z,25.73
2019-03-26T08:13:18.811Z,21.07
2019-03-26T08:16:01.092Z,20.80
2019-03-26T08:18:33.513Z,23.83
2019-03-26T08:21:05.798Z,28.53
2019-03-26T08:23:40.258Z,25.03
2019-03-26T08:26:12.660Z,22.47
2019-03-26T08:28:45.090Z,29.57
2019-03-26T08:31:18.961Z,32.37
2019-03-26T08:33:54.042Z,32.90
2019-03-26T08:36:27.088Z,28.60
2019-03-26T08:39:03.467Z,20.57
2019-03-26T08:41:35.954Z,20.17
2019-03-26T08:44:07.928Z,21.23
2019-03-26T08:46:40.481Z,21.77
2019-03-26T08:49:14.196Z,22.83
2019-03-26T08:51:51.240Z,23.37
2019-03-26T08:54:26.262Z,21.73
2019-03-26T08:56:58.900Z,23.93
2019-03-26T08:59:31.716Z,20.90
2019-03-26T09:02:05.410Z,29.27
2019-03-26T09:04:40.649Z,25.20
2019-03-26T09:07:13.352Z,22.30
2019-03-26T09:09:47.568Z,33.73
2019-03-26T09:12:19.953Z,21.73
2019-03-26T09:14:53.334Z,29.43
2019-03-26T09:17:26.340Z,34.30
2019-03-26T09:19:58.636Z,29.00
2019-03-26T09:22:33.848Z,34.10
2019-03-26T09:25:06.580Z,19.83
2019-03-26T09:27:39.330Z,34.77
2019-03-26T09:30:12.988Z,31.57
2019-03-26T09:32:45.762Z,31.07
2019-03-26T09:35:19.114Z,25.23
2019-03-26T09:37:52.618Z,28.07
2019-03-26T09:40:25.612Z,21.77
2019-03-26T09:42:57.945Z,33.17
2019-03-26T09:45:30.649Z,29.33
2019-03-26T09:48:09.002Z,13.80
2019-03-26T09:50:41.328Z,20.27
2019-03-26T09:53:13.944Z,39.97
2019-03-26T09:55:46.642Z,19.57
2019-03-26T09:58:18.941Z,25.33
2019-03-26T10:00:51.464Z,23.77
2019-03-26T10:03:29.734Z,22.50
2019-03-26T10:06:01.937Z,20.73
2019-03-26T10:08:34.451Z,22.07
2019-03-26T10:11:08.235Z,27.63
2019-03-26T10:13:42.244Z,26.60
2019-03-26T10:16:14.479Z,29.50
2019-03-26T10:18:47.093Z,23.67
2019-03-26T10:21:19.261Z,37.83
2019-03-26T10:23:51.624Z,16.90
2019-03-26T10:26:24.277Z,24.93
2019-03-26T10:28:56.605Z,27.53
2019-03-26T10:31:32.186Z,20.47
2019-03-26T10:34:05.455Z,14.47
2019-03-26T10:36:41.397Z,21.17
2019-03-26T10:39:12.599Z,30.93
2019-03-26T10:41:46.472Z,33.90
2019-03-26T10:44:25.426Z,38.63
2019-03-26T10:46:59.173Z,31.33
2019-03-26T10:49:31.317Z,13.57
2019-03-26T10:52:03.689Z,23.67
2019-03-26T10:54:35.919Z,17.13
2019-03-26T10:57:08.549Z,8.27
2019-03-26T10:59:43.632Z,12.40
2019-03-26T11:02:15.833Z,23.83
2019-03-26T11:04:48.507Z,20.43
2019-03-26T11:07:20.898Z,26.37
2019-03-26T11:10:03.408Z,22.07
2019-03-26T11:12:48.984Z,14.23
2019-03-26T11:15:26.845Z,17.67
2019-03-26T11:17:59.061Z,5.17
2019-03-26T11:20:31.603Z,14.37
2019-03-26T11:23:03.724Z,14.93
2019-03-26T11:25:36.056Z,10.97
2019-03-26T11:28:08.234Z,17.40
2019-03-26T11:30:40.471Z,16.20
2019-03-26T11:33:12.466Z,13.63
2019-03-26T11:35:45.639Z,19.67
2019-03-26T11:38:18.658Z,13.33
2019-03-26T11:40:50.935Z,21.87
2019-03-26T11:43:24.171Z,17.17
2019-03-26T11:45:57.861Z,18.13
2019-03-26T11:48:32.203Z,11.60
2019-03-26T11:51:04.207Z,21.47
2019-03-26T11:53:36.234Z,12.70
2019-03-26T11:56:08.676Z,12.07
2019-03-26T11:58:42.347Z,13.93
2019-03-26T12:01:14.603Z,18.43
2019-03-26T12:03:48.515Z,17.93
2019-03-26T12:06:21.054Z,16.30
2019-03-26T12:08:53.411Z,15.73
2019-03-26T12:11:25.576Z,17.67
2019-03-26T12:13:58.392Z,15.87
2019-03-26T12:16:30.940Z,11.53
2019-03-26T12:19:03.184Z,12.13
2019-03-26T12:21:35.177Z,13.50
2019-03-26T12:24:07.357Z,14.40
2019-03-26T12:26:43.262Z,14.43
2019-03-26T12:29:15.757Z,6.63
2019-03-26T12:31:54.397Z,11.27
2019-03-26T12:34:37.588Z,12.37
2019-03-26T12:37:09.825Z,9.77
2019-03-26T12:39:44.251Z,18.03
2019-03-26T12:42:16.395Z,13.67
2019-03-26T12:44:49.662Z,13.57
2019-03-26T12:47:24.054Z,11.47
2019-03-26T12:49:56.879Z,16.20
2019-03-26T12:52:30.610Z,8.67
2019-03-26T12:55:03.481Z,12.20
2019-03-26T12:57:35.712Z,12.43
2019-03-26T13:00:08.217Z,9.17
2019-03-26T13:02:40.484Z,11.67
2019-03-26T13:05:12.586Z,12.90
2019-03-26T13:07:45.001Z,12.83
2019-03-26T13:10:17.757Z,12.83
2019-03-26T13:12:49.960Z,7.43
2019-03-26T13:15:22.176Z,21.40
2019-03-26T13:18:00.170Z,14.47
2019-03-26T13:20:32.408Z,8.77
2019-03-26T13:23:04.641Z,15.33
2019-03-26T13:25:37.002Z,16.43
2019-03-26T13:28:09.513Z,13.47
2019-03-26T13:30:41.706Z,6.97
2019-03-26T13:33:13.874Z,12.60
2019-03-26T13:35:47.573Z,8.60
2019-03-26T13:38:19.817Z,10.33
2019-03-26T13:40:52.195Z,5.67
2019-03-26T13:43:26.827Z,11.17
2019-03-26T13:45:59.130Z,4.90
2019-03-26T13:48:31.617Z,8.67
2019-03-26T13:51:05.432Z,9.40
2019-03-26T13:53:37.576Z,10.93
2019-03-26T13:56:10.629Z,8.43
2019-03-26T13:58:43.183Z,13.13
2019-03-26T14:01:15.348Z,31.17
2019-03-26T14:03:50.020Z,7.03
2019-03-26T14:06:22.188Z,7.17
2019-03-26T14:08:54.173Z,10.80
2019-03-26T14:11:29.184Z,13.30
2019-03-26T14:14:04.070Z,10.23
2019-03-26T14:16:37.668Z,11.60
2019-03-26T14:19:11.701Z,16.93
2019-03-26T14:21:46.240Z,12.70
2019-03-26T14:24:28.328Z,8.70
2019-03-26T14:27:00.548Z,11.27
2019-03-26T14:29:32.770Z,24.17
2019-03-26T14:32:05.272Z,10.97
2019-03-26T14:34:38.135Z,10.60
2019-03-26T14:37:13.874Z,10.47
2019-03-26T14:39:46.290Z,18.83
2019-03-26T14:42:21.496Z,16.50
2019-03-26T14:44:53.807Z,16.20
2019-03-26T14:47:28.118Z,14.23
2019-03-26T14:50:03.773Z,10.37
2019-03-26T14:52:36.446Z,12.67
2019-03-26T14:55:10.309Z,11.37
2019-03-26T14:57:47.482Z,15.07
2019-03-26T15:00:19.964Z,16.47
2019-03-26T15:03:02.310Z,4.53
2019-03-26T15:05:36.041Z,13.47
2019-03-26T15:08:11.663Z,5.23
2019-03-26T15:10:47.050Z,0.83
2019-03-26T15:13:20.652Z,0.57
2019-03-26T15:15:52.994Z,5.30
2019-03-26T15:18:25.811Z,4.50
2019-03-26T15:20:59.188Z,2.57
2019-03-26T15:23:32.198Z,3.37
2019-03-26T15:26:07.526Z,5.73
2019-03-26T15:28:40.451Z,2.40
2019-03-26T15:31:13.376Z,3.67
2019-03-26T15:33:48.239Z,4.40
2019-03-26T15:36:22.021Z,3.77
2019-03-26T15:38:56.051Z,1.57
2019-03-26T15:41:30.497Z,2.67
2019-03-26T15:44:03.213Z,7.00
2019-03-26T15:46:36.587Z,4.00
2019-03-26T15:49:11.373Z,1.90
2019-03-26T15:51:45.371Z,2.47
2019-03-26T15:54:18.292Z,6.63
2019-03-26T15:56:54.624Z,4.20
2019-03-26T15:59:29.778Z,3.30
2019-03-26T16:02:05.672Z,5.60
2019-03-26T16:04:41.300Z,4.53
2019-03-26T16:07:15.402Z,4.17
2019-03-26T16:09:51.756Z,6.20
2019-03-26T16:12:24.631Z,4.33
2019-03-26T16:14:59.630Z,4.93
2019-03-26T16:17:33.745Z,5.77
2019-03-26T16:20:08.667Z,5.30
2019-03-26T16:22:41.151Z,4.47
2019-03-26T16:25:16.184Z,4.83
2019-03-26T16:27:54.354Z,4.60
2019-03-26T16:30:27.187Z,13.73
2019-03-26T16:32:59.692Z,5.73
2019-03-26T16:35:35.564Z,4.10
2019-03-26T16:38:09.206Z,7.63
2019-03-26T16:41:00.568Z,3.60
2019-03-26T16:43:34.254Z,5.03
2019-03-26T16:46:09.400Z,6.53
2019-03-26T16:48:43.072Z,3.10
2019-03-26T16:51:21.280Z,4.27
2019-03-26T16:53:57.222Z,10.47
2019-03-26T16:56:31.114Z,12.33
2019-03-26T16:59:04.768Z,7.07
2019-03-26T17:01:37.508Z,7.30
2019-03-26T17:04:11.210Z,6.97
2019-03-26T17:06:46.190Z,5.77
2019-03-26T17:09:18.889Z,7.47
2019-03-26T17:12:03.253Z,7.53
2019-03-26T17:14:30.691Z,8.33
2019-03-26T17:17:03.081Z,10.37
2019-03-26T17:19:38.325Z,13.47
2019-03-26T17:22:10.365Z,7.83
2019-03-26T17:24:44.174Z,10.47
2019-03-26T17:27:17.244Z,8.47
2019-03-26T17:29:51.228Z,8.10
2019-03-26T17:32:23.778Z,8.07
2019-03-26T17:34:57.623Z,8.03
2019-03-26T17:37:32.132Z,9.47
2019-03-26T17:40:04.750Z,10.70
2019-03-26T17:42:38.293Z,6.37
2019-03-26T17:45:10.676Z,10.27
2019-03-26T17:47:43.130Z,11.57
2019-03-26T17:50:17.584Z,10.57
2019-03-26T17:52:49.710Z,10.93
2019-03-26T17:55:22.247Z,7.63
2019-03-26T17:57:56.992Z,7.43
2019-03-26T18:00:44.044Z,7.37
2019-03-26T18:03:26.435Z,11.27
2019-03-26T18:05:52.527Z,5.43
2019-03-26T18:08:26.370Z,7.40
2019-03-26T18:10:59.458Z,7.00
2019-03-26T18:13:31.670Z,8.40
2019-03-26T18:16:14.039Z,4.13
2019-03-26T18:18:49.478Z,6.40
2019-03-26T18:21:21.776Z,4.90
2019-03-26T18:23:56.989Z,7.47
2019-03-26T18:26:31.096Z,5.30
2019-03-26T18:29:04.143Z,3.90
2019-03-26T18:31:36.094Z,4.90
2019-03-26T18:34:09.148Z,7.30
2019-03-26T18:36:43.884Z,3.50
2019-03-26T18:39:16.401Z,4.50
2019-03-26T18:41:48.645Z,6.80
2019-03-26T18:44:31.932Z,7.03
2019-03-26T18:47:04.194Z,10.17
2019-03-26T18:49:43.208Z,6.67
2019-03-26T18:52:17.504Z,4.73
2019-03-26T18:54:50.056Z,6.23
2019-03-26T18:57:25.644Z,9.33
2019-03-26T18:59:57.898Z,4.67
2019-03-26T19:02:30.009Z,3.30
2019-03-26T19:05:02.212Z,8.30
2019-03-26T19:07:37.204Z,9.63
2019-03-26T19:10:25.210Z,6.47
2019-03-26T19:12:58.866Z,6.53
2019-03-26T19:15:33.512Z,8.20
2019-03-26T19:18:05.892Z,8.73
2019-03-26T19:20:40.874Z,11.60
2019-03-26T19:23:13.002Z,9.00
2019-03-26T19:25:47.352Z,10.17
2019-03-26T19:28:19.560Z,7.13
2019-03-26T19:30:51.698Z,8.83
2019-03-26T19:33:24.078Z,6.87
2019-03-26T19:35:55.880Z,9.13
2019-03-26T19:38:27.926Z,7.47
2019-03-26T19:41:02.777Z,9.33
2019-03-26T19:43:40.410Z,6.60
2019-03-26T19:46:12.794Z,6.33
2019-03-26T19:48:44.987Z,7.17
2019-03-26T19:51:18.000Z,8.10
2019-03-26T19:53:51.948Z,6.37
2019-03-26T19:56:26.488Z,5.00
2019-03-26T19:58:59.024Z,5.67
2019-03-26T20:01:34.998Z,2.90
2019-03-26T20:04:11.187Z,5.73
2019-03-26T20:06:43.277Z,7.87
2019-03-26T20:09:16.879Z,6.97
2019-03-26T20:11:49.290Z,4.00
2019-03-26T20:14:25.773Z,4.47
2019-03-26T20:16:58.237Z,6.17
2019-03-26T20:19:32.848Z,9.87
2019-03-26T20:22:04.860Z,4.30
2019-03-26T20:24:37.143Z,7.27
2019-03-26T20:27:21.193Z,3.07
2019-03-26T20:29:53.796Z,5.70
2019-03-26T20:32:26.716Z,7.47
2019-03-26T20:34:58.844Z,6.60
2019-03-26T20:37:33.163Z,6.57
2019-03-26T20:40:05.829Z,2.80
2019-03-26T20:42:38.073Z,6.40
2019-03-26T20:45:14.475Z,6.43
2019-03-26T20:47:46.842Z,8.00
2019-03-26T20:50:24.896Z,5.40
2019-03-26T20:52:58.982Z,4.43
2019-03-26T20:55:34.724Z,6.87
2019-03-26T20:58:07.266Z,3.37
2019-03-26T21:00:43.117Z,7.20
2019-03-26T21:03:15.772Z,8.60
2019-03-26T21:05:48.078Z,6.13
2019-03-26T21:08:21.509Z,4.17
2019-03-26T21:10:54.030Z,7.90
2019-03-26T21:13:28.798Z,4.33
2019-03-26T21:16:01.356Z,6.20
2019-03-26T21:18:33.652Z,9.37
2019-03-26T21:21:05.729Z,7.40
2019-03-26T21:23:38.084Z,7.60
2019-03-26T21:26:13.025Z,6.40
2019-03-26T21:28:45.150Z,6.00
2019-03-26T21:31:17.688Z,6.43
2019-03-26T21:33:51.986Z,9.40
2019-03-26T21:36:24.455Z,8.93
2019-03-26T21:38:57.044Z,7.77
2019-03-26T21:41:28.981Z,9.20
2019-03-26T21:44:04.580Z,9.87
2019-03-26T21:46:35.197Z,4.63
2019-03-26T21:49:10.933Z,9.97
2019-03-26T21:51:43.218Z,7.70
2019-03-26T21:54:15.329Z,6.80
2019-03-26T21:56:47.987Z,8.03
2019-03-26T21:59:22.379Z,10.80
2019-03-26T22:01:55.864Z,6.47
2019-03-26T22:04:28.204Z,12.07
2019-03-26T22:07:00.187Z,9.10
2019-03-26T22:09:32.522Z,7.63
2019-03-26T22:12:05.088Z,2.93
2019-03-26T22:14:38.544Z,13.77
2019-03-26T22:17:11.736Z,4.40
2019-03-26T22:19:43.807Z,11.60
2019-03-26T22:22:18.608Z,5.80
2019-03-26T22:24:51.120Z,9.03
2019-03-26T22:27:27.514Z,10.50
2019-03-26T22:30:01.419Z,9.60
2019-03-26T22:32:33.714Z,12.67
2019-03-26T22:35:06.238Z,8.27
2019-03-26T22:37:38.484Z,7.53
2019-03-26T22:40:10.705Z,9.80
2019-03-26T22:42:42.970Z,13.67
2019-03-26T22:45:15.902Z,4.77
2019-03-26T22:47:49.951Z,5.80
2019-03-26T22:50:23.683Z,4.50
2019-03-26T22:52:55.920Z,7.47
2019-03-26T22:55:28.247Z,9.27
2019-03-26T22:58:00.567Z,9.87
2019-03-26T23:00:37.676Z,7.00
2019-03-26T23:03:10.044Z,6.80
2019-03-26T23:05:42.257Z,6.87
2019-03-26T23:08:16.159Z,5.77
2019-03-26T23:10:48.428Z,5.20
2019-03-26T23:13:27.767Z,7.73
2019-03-26T23:16:00.210Z,11.20
2019-03-26T23:18:33.043Z,6.33
2019-03-26T23:21:06.584Z,4.63
2019-03-26T23:23:40.742Z,4.77
2019-03-26T23:26:12.967Z,7.30
2019-03-26T23:28:45.333Z,8.10
2019-03-26T23:31:17.799Z,4.70
2019-03-26T23:33:50.061Z,11.90
2019-03-26T23:36:22.230Z,7.70
2019-03-26T23:38:54.578Z,7.33
2019-03-26T23:41:26.686Z,11.53
2019-03-26T23:43:58.969Z,8.10
2019-03-26T23:46:31.560Z,5.13
2019-03-26T23:49:03.998Z,6.50
2019-03-26T23:51:36.350Z,7.07
2019-03-26T23:54:12.136Z,8.43
2019-03-26T23:56:44.249Z,6.03
2019-03-26T23:59:18.172Z,5.37
